sensor_id;sensor_type;location;lat;lon;timestamp;P1;durP1;ratioP1;P2;durP2;ratioP2
43998;SDS011;51319;52.162;5.302;2023-05-07T00:02:09;19.30;;;14.73;;
43998;SDS011;51319;52.162;5.302;2023-05-07T00:04:36;16.73;;;14.25;;
43998;SDS011;51319;52.162;5.302;2023-05-07T00:07:05;17.13;;;13.02;;
43998;SDS011;51319;52.162;5.302;2023-05-07T00:09:32;14.73;;;13.15;;
43998;SDS011;51319;52.162;5.302;2023-05-07T00:12:00;15.77;;;13.00;;
43998;SDS011;51319;52.162;5.302;2023-05-07T00:14:27;17.55;;;13.45;;
43998;SDS011;51319;52.162;5.302;2023-05-07T00:16:55;13.30;;;11.63;;
43998;SDS011;51319;52.162;5.302;2023-05-07T00:19:23;15.13;;;11.75;;
43998;SDS011;51319;52.162;5.302;2023-05-07T00:21:51;17.88;;;12.93;;
43998;SDS011;51319;52.162;5.302;2023-05-07T00:24:20;15.82;;;11.15;;
43998;SDS011;51319;52.162;5.302;2023-05-07T00:26:47;15.98;;;11.75;;
43998;SDS011;51319;52.162;5.302;2023-05-07T00:29:15;12.98;;;11.50;;
43998;SDS011;51319;52.162;5.302;2023-05-07T00:31:41;19.85;;;11.07;;
43998;SDS011;51319;52.162;5.302;2023-05-07T00:34:10;16.45;;;10.85;;
43998;SDS011;51319;52.162;5.302;2023-05-07T00:36:37;15.98;;;11.23;;
43998;SDS011;51319;52.162;5.302;2023-05-07T00:39:04;16.55;;;11.80;;
43998;SDS011;51319;52.162;5.302;2023-05-07T00:41:32;13.63;;;11.23;;
43998;SDS011;51319;52.162;5.302;2023-05-07T00:43:59;16.75;;;10.93;;
43998;SDS011;51319;52.162;5.302;2023-05-07T00:46:30;16.05;;;10.52;;
43998;SDS011;51319;52.162;5.302;2023-05-07T00:48:59;14.85;;;11.32;;
43998;SDS011;51319;52.162;5.302;2023-05-07T00:51:27;13.63;;;10.15;;
43998;SDS011;51319;52.162;5.302;2023-05-07T00:53:56;14.95;;;10.70;;
43998;SDS011;51319;52.162;5.302;2023-05-07T00:56:24;14.38;;;11.13;;
43998;SDS011;51319;52.162;5.302;2023-05-07T00:58:53;12.35;;;10.38;;
43998;SDS011;51319;52.162;5.302;2023-05-07T01:01:23;15.50;;;9.95;;
43998;SDS011;51319;52.162;5.302;2023-05-07T01:03:52;12.80;;;10.40;;
43998;SDS011;51319;52.162;5.302;2023-05-07T01:06:20;13.88;;;10.20;;
43998;SDS011;51319;52.162;5.302;2023-05-07T01:08:49;13.50;;;10.52;;
43998;SDS011;51319;52.162;5.302;2023-05-07T01:11:19;13.88;;;10.63;;
43998;SDS011;51319;52.162;5.302;2023-05-07T01:13:47;11.38;;;10.00;;
43998;SDS011;51319;52.162;5.302;2023-05-07T01:16:17;14.30;;;10.27;;
43998;SDS011;51319;52.162;5.302;2023-05-07T01:18:44;15.55;;;10.30;;
43998;SDS011;51319;52.162;5.302;2023-05-07T01:21:15;14.35;;;10.35;;
43998;SDS011;51319;52.162;5.302;2023-05-07T01:23:45;11.38;;;9.50;;
43998;SDS011;51319;52.162;5.302;2023-05-07T01:26:13;13.95;;;9.77;;
43998;SDS011;51319;52.162;5.302;2023-05-07T01:28:40;10.73;;;9.55;;
43998;SDS011;51319;52.162;5.302;2023-05-07T01:31:07;12.68;;;9.23;;
43998;SDS011;51319;52.162;5.302;2023-05-07T01:33:35;15.93;;;10.25;;
43998;SDS011;51319;52.162;5.302;2023-05-07T01:36:04;14.40;;;10.25;;
43998;SDS011;51319;52.162;5.302;2023-05-07T01:38:36;14.27;;;10.45;;
43998;SDS011;51319;52.162;5.302;2023-05-07T01:41:07;14.85;;;10.55;;
43998;SDS011;51319;52.162;5.302;2023-05-07T01:43:34;17.02;;;10.00;;
43998;SDS011;51319;52.162;5.302;2023-05-07T01:46:01;14.75;;;10.57;;
43998;SDS011;51319;52.162;5.302;2023-05-07T01:48:30;13.85;;;10.23;;
43998;SDS011;51319;52.162;5.302;2023-05-07T01:50:59;12.30;;;9.35;;
43998;SDS011;51319;52.162;5.302;2023-05-07T01:53:29;13.80;;;10.18;;
43998;SDS011;51319;52.162;5.302;2023-05-07T01:56:03;14.55;;;10.23;;
43998;SDS011;51319;52.162;5.302;2023-05-07T01:58:31;11.63;;;10.30;;
43998;SDS011;51319;52.162;5.302;2023-05-07T02:00:58;16.52;;;11.38;;
43998;SDS011;51319;52.162;5.302;2023-05-07T02:03:26;21.52;;;11.88;;
43998;SDS011;51319;52.162;5.302;2023-05-07T02:05:53;15.02;;;10.95;;
43998;SDS011;51319;52.162;5.302;2023-05-07T02:08:20;13.45;;;10.77;;
43998;SDS011;51319;52.162;5.302;2023-05-07T02:10:48;18.20;;;12.45;;
43998;SDS011;51319;52.162;5.302;2023-05-07T02:13:16;16.33;;;12.82;;
43998;SDS011;51319;52.162;5.302;2023-05-07T02:15:43;14.65;;;11.00;;
43998;SDS011;51319;52.162;5.302;2023-05-07T02:18:13;20.30;;;13.10;;
43998;SDS011;51319;52.162;5.302;2023-05-07T02:20:40;17.35;;;13.13;;
43998;SDS011;51319;52.162;5.302;2023-05-07T02:23:11;15.57;;;13.05;;
43998;SDS011;51319;52.162;5.302;2023-05-07T02:25:38;17.80;;;13.40;;
43998;SDS011;51319;52.162;5.302;2023-05-07T02:28:06;15.65;;;13.70;;
43998;SDS011;51319;52.162;5.302;2023-05-07T02:30:37;17.02;;;13.60;;
43998;SDS011;51319;52.162;5.302;2023-05-07T02:33:04;19.17;;;13.35;;
43998;SDS011;51319;52.162;5.302;2023-05-07T02:35:32;15.60;;;13.13;;
43998;SDS011;51319;52.162;5.302;2023-05-07T02:37:59;15.55;;;13.80;;
43998;SDS011;51319;52.162;5.302;2023-05-07T02:40:27;21.02;;;13.73;;
43998;SDS011;51319;52.162;5.302;2023-05-07T02:42:55;18.80;;;13.68;;
43998;SDS011;51319;52.162;5.302;2023-05-07T02:45:22;19.40;;;14.85;;
43998;SDS011;51319;52.162;5.302;2023-05-07T02:47:52;18.05;;;14.00;;
43998;SDS011;51319;52.162;5.302;2023-05-07T02:50:19;17.10;;;14.27;;
43998;SDS011;51319;52.162;5.302;2023-05-07T02:52:46;15.23;;;13.30;;
43998;SDS011;51319;52.162;5.302;2023-05-07T02:55:16;16.75;;;14.88;;
43998;SDS011;51319;52.162;5.302;2023-05-07T02:57:44;16.67;;;13.77;;
43998;SDS011;51319;52.162;5.302;2023-05-07T03:00:14;18.75;;;14.60;;
43998;SDS011;51319;52.162;5.302;2023-05-07T03:02:45;17.17;;;14.77;;
43998;SDS011;51319;52.162;5.302;2023-05-07T03:05:13;18.20;;;14.68;;
43998;SDS011;51319;52.162;5.302;2023-05-07T03:07:40;19.08;;;15.27;;
43998;SDS011;51319;52.162;5.302;2023-05-07T03:10:11;21.60;;;16.05;;
43998;SDS011;51319;52.162;5.302;2023-05-07T03:12:38;20.90;;;15.77;;
43998;SDS011;51319;52.162;5.302;2023-05-07T03:15:06;20.35;;;15.55;;
43998;SDS011;51319;52.162;5.302;2023-05-07T03:17:34;21.25;;;15.48;;
43998;SDS011;51319;52.162;5.302;2023-05-07T03:20:01;20.65;;;15.93;;
43998;SDS011;51319;52.162;5.302;2023-05-07T03:22:29;22.08;;;16.15;;
43998;SDS011;51319;52.162;5.302;2023-05-07T03:25:00;18.55;;;14.18;;
43998;SDS011;51319;52.162;5.302;2023-05-07T03:27:27;19.35;;;14.55;;
43998;SDS011;51319;52.162;5.302;2023-05-07T03:29:54;17.45;;;13.95;;
43998;SDS011;51319;52.162;5.302;2023-05-07T03:32:21;19.42;;;15.50;;
43998;SDS011;51319;52.162;5.302;2023-05-07T03:34:49;22.02;;;15.48;;
43998;SDS011;51319;52.162;5.302;2023-05-07T03:37:17;22.88;;;15.85;;
43998;SDS011;51319;52.162;5.302;2023-05-07T03:39:47;17.08;;;14.60;;
43998;SDS011;51319;52.162;5.302;2023-05-07T03:42:17;17.80;;;15.65;;
43998;SDS011;51319;52.162;5.302;2023-05-07T03:44:44;19.90;;;17.02;;
43998;SDS011;51319;52.162;5.302;2023-05-07T03:47:15;20.52;;;17.02;;
43998;SDS011;51319;52.162;5.302;2023-05-07T03:49:42;18.02;;;15.48;;
43998;SDS011;51319;52.162;5.302;2023-05-07T03:54:41;21.15;;;16.90;;
43998;SDS011;51319;52.162;5.302;2023-05-07T03:57:08;24.65;;;16.20;;
43998;SDS011;51319;52.162;5.302;2023-05-07T03:59:35;25.45;;;17.52;;
43998;SDS011;51319;52.162;5.302;2023-05-07T04:02:02;23.63;;;16.92;;
43998;SDS011;51319;52.162;5.302;2023-05-07T04:04:31;22.85;;;16.38;;
43998;SDS011;51319;52.162;5.302;2023-05-07T04:06:59;21.83;;;16.75;;
43998;SDS011;51319;52.162;5.302;2023-05-07T04:09:27;21.80;;;16.77;;
43998;SDS011;51319;52.162;5.302;2023-05-07T04:11:54;25.10;;;17.55;;
43998;SDS011;51319;52.162;5.302;2023-05-07T04:14:23;18.90;;;15.55;;
43998;SDS011;51319;52.162;5.302;2023-05-07T04:16:50;21.80;;;16.52;;
43998;SDS011;51319;52.162;5.302;2023-05-07T04:19:20;23.55;;;16.77;;
43998;SDS011;51319;52.162;5.302;2023-05-07T04:21:47;21.52;;;16.73;;
43998;SDS011;51319;52.162;5.302;2023-05-07T04:24:15;20.48;;;16.95;;
43998;SDS011;51319;52.162;5.302;2023-05-07T04:26:42;24.60;;;16.85;;
43998;SDS011;51319;52.162;5.302;2023-05-07T04:29:10;23.40;;;16.20;;
43998;SDS011;51319;52.162;5.302;2023-05-07T04:31:38;26.77;;;16.33;;
43998;SDS011;51319;52.162;5.302;2023-05-07T04:34:05;21.35;;;16.98;;
43998;SDS011;51319;52.162;5.302;2023-05-07T04:36:32;25.20;;;16.40;;
43998;SDS011;51319;52.162;5.302;2023-05-07T04:39:00;20.60;;;16.13;;
43998;SDS011;51319;52.162;5.302;2023-05-07T04:41:31;20.13;;;15.25;;
43998;SDS011;51319;52.162;5.302;2023-05-07T04:43:59;26.45;;;16.17;;
43998;SDS011;51319;52.162;5.302;2023-05-07T04:46:28;20.73;;;15.95;;
43998;SDS011;51319;52.162;5.302;2023-05-07T04:48:55;20.40;;;15.15;;
43998;SDS011;51319;52.162;5.302;2023-05-07T04:51:21;19.50;;;15.63;;
43998;SDS011;51319;52.162;5.302;2023-05-07T04:53:52;19.45;;;15.57;;
43998;SDS011;51319;52.162;5.302;2023-05-07T04:56:21;29.48;;;15.93;;
43998;SDS011;51319;52.162;5.302;2023-05-07T04:58:48;17.80;;;15.40;;
43998;SDS011;51319;52.162;5.302;2023-05-07T05:01:17;18.75;;;15.65;;
43998;SDS011;51319;52.162;5.302;2023-05-07T05:03:44;18.25;;;16.00;;
43998;SDS011;51319;52.162;5.302;2023-05-07T05:06:11;20.95;;;15.68;;
43998;SDS011;51319;52.162;5.302;2023-05-07T05:08:38;23.52;;;15.02;;
43998;SDS011;51319;52.162;5.302;2023-05-07T05:11:05;21.60;;;15.27;;
43998;SDS011;51319;52.162;5.302;2023-05-07T05:13:32;17.70;;;15.07;;
43998;SDS011;51319;52.162;5.302;2023-05-07T05:15:59;16.73;;;14.48;;
43998;SDS011;51319;52.162;5.302;2023-05-07T05:18:27;19.27;;;15.13;;
43998;SDS011;51319;52.162;5.302;2023-05-07T05:20:54;17.85;;;14.18;;
43998;SDS011;51319;52.162;5.302;2023-05-07T05:23:24;17.33;;;13.82;;
43998;SDS011;51319;52.162;5.302;2023-05-07T05:25:55;17.13;;;14.05;;
43998;SDS011;51319;52.162;5.302;2023-05-07T05:28:24;16.08;;;14.23;;
43998;SDS011;51319;52.162;5.302;2023-05-07T05:30:51;18.13;;;14.20;;
43998;SDS011;51319;52.162;5.302;2023-05-07T05:33:19;20.70;;;14.50;;
43998;SDS011;51319;52.162;5.302;2023-05-07T05:38:17;18.27;;;13.52;;
43998;SDS011;51319;52.162;5.302;2023-05-07T05:40:44;21.15;;;13.85;;
43998;SDS011;51319;52.162;5.302;2023-05-07T05:43:25;21.38;;;14.25;;
43998;SDS011;51319;52.162;5.302;2023-05-07T05:45:52;21.15;;;14.85;;
43998;SDS011;51319;52.162;5.302;2023-05-07T05:48:19;22.92;;;15.73;;
43998;SDS011;51319;52.162;5.302;2023-05-07T05:50:48;22.08;;;15.05;;
43998;SDS011;51319;52.162;5.302;2023-05-07T05:53:15;18.90;;;15.52;;
43998;SDS011;51319;52.162;5.302;2023-05-07T05:55:42;34.80;;;23.40;;
43998;SDS011;51319;52.162;5.302;2023-05-07T05:58:17;21.67;;;14.73;;
43998;SDS011;51319;52.162;5.302;2023-05-07T06:00:47;19.90;;;15.32;;
43998;SDS011;51319;52.162;5.302;2023-05-07T06:03:17;20.15;;;15.43;;
43998;SDS011;51319;52.162;5.302;2023-05-07T06:05:48;20.33;;;15.68;;
43998;SDS011;51319;52.162;5.302;2023-05-07T06:08:20;25.77;;;16.27;;
43998;SDS011;51319;52.162;5.302;2023-05-07T06:10:47;24.38;;;16.92;;
43998;SDS011;51319;52.162;5.302;2023-05-07T06:13:17;18.92;;;16.50;;
43998;SDS011;51319;52.162;5.302;2023-05-07T06:15:48;22.38;;;17.65;;
43998;SDS011;51319;52.162;5.302;2023-05-07T06:18:17;23.67;;;18.65;;
43998;SDS011;51319;52.162;5.302;2023-05-07T06:20:45;24.00;;;17.95;;
43998;SDS011;51319;52.162;5.302;2023-05-07T06:23:13;21.00;;;17.88;;
43998;SDS011;51319;52.162;5.302;2023-05-07T06:25:47;22.80;;;18.75;;
43998;SDS011;51319;52.162;5.302;2023-05-07T06:28:15;24.27;;;18.70;;
43998;SDS011;51319;52.162;5.302;2023-05-07T06:30:42;23.98;;;18.63;;
43998;SDS011;51319;52.162;5.302;2023-05-07T06:33:11;27.00;;;19.25;;
43998;SDS011;51319;52.162;5.302;2023-05-07T06:35:38;28.42;;;18.75;;
43998;SDS011;51319;52.162;5.302;2023-05-07T06:38:05;23.38;;;18.42;;
43998;SDS011;51319;52.162;5.302;2023-05-07T06:40:32;25.70;;;20.45;;
43998;SDS011;51319;52.162;5.302;2023-05-07T06:43:00;28.33;;;18.65;;
43998;SDS011;51319;52.162;5.302;2023-05-07T06:45:33;23.33;;;19.80;;
43998;SDS011;51319;52.162;5.302;2023-05-07T06:48:00;28.10;;;20.48;;
43998;SDS011;51319;52.162;5.302;2023-05-07T06:50:30;22.75;;;17.70;;
43998;SDS011;51319;52.162;5.302;2023-05-07T06:52:57;28.13;;;19.77;;
43998;SDS011;51319;52.162;5.302;2023-05-07T06:55:26;25.75;;;18.95;;
43998;SDS011;51319;52.162;5.302;2023-05-07T06:57:53;22.50;;;18.77;;
43998;SDS011;51319;52.162;5.302;2023-05-07T07:00:22;24.65;;;19.25;;
43998;SDS011;51319;52.162;5.302;2023-05-07T07:02:50;23.60;;;19.50;;
43998;SDS011;51319;52.162;5.302;2023-05-07T07:05:17;25.90;;;18.67;;
43998;SDS011;51319;52.162;5.302;2023-05-07T07:07:45;21.38;;;17.85;;
43998;SDS011;51319;52.162;5.302;2023-05-07T07:10:20;25.55;;;19.08;;
43998;SDS011;51319;52.162;5.302;2023-05-07T07:12:50;26.25;;;19.85;;
43998;SDS011;51319;52.162;5.302;2023-05-07T07:15:19;22.00;;;19.70;;
43998;SDS011;51319;52.162;5.302;2023-05-07T07:17:47;20.05;;;17.48;;
43998;SDS011;51319;52.162;5.302;2023-05-07T07:20:15;17.52;;;15.05;;
43998;SDS011;51319;52.162;5.302;2023-05-07T07:22:44;20.58;;;16.58;;
43998;SDS011;51319;52.162;5.302;2023-05-07T07:25:11;20.00;;;16.20;;
43998;SDS011;51319;52.162;5.302;2023-05-07T07:27:40;19.20;;;16.05;;
43998;SDS011;51319;52.162;5.302;2023-05-07T07:30:08;19.95;;;16.10;;
43998;SDS011;51319;52.162;5.302;2023-05-07T07:32:35;19.55;;;15.55;;
43998;SDS011;51319;52.162;5.302;2023-05-07T07:35:03;17.05;;;15.25;;
43998;SDS011;51319;52.162;5.302;2023-05-07T07:37:31;15.88;;;13.82;;
43998;SDS011;51319;52.162;5.302;2023-05-07T07:39:58;17.30;;;13.82;;
43998;SDS011;51319;52.162;5.302;2023-05-07T07:42:27;14.50;;;12.98;;
43998;SDS011;51319;52.162;5.302;2023-05-07T07:44:55;16.80;;;12.00;;
43998;SDS011;51319;52.162;5.302;2023-05-07T07:47:28;13.57;;;11.98;;
43998;SDS011;51319;52.162;5.302;2023-05-07T07:49:55;14.48;;;12.50;;
43998;SDS011;51319;52.162;5.302;2023-05-07T07:52:22;14.13;;;12.63;;
43998;SDS011;51319;52.162;5.302;2023-05-07T07:54:50;16.65;;;12.75;;
43998;SDS011;51319;52.162;5.302;2023-05-07T07:57:22;13.93;;;12.48;;
43998;SDS011;51319;52.162;5.302;2023-05-07T07:59:54;18.67;;;11.82;;
43998;SDS011;51319;52.162;5.302;2023-05-07T08:02:25;16.10;;;12.82;;
43998;SDS011;51319;52.162;5.302;2023-05-07T08:04:55;14.70;;;11.68;;
43998;SDS011;51319;52.162;5.302;2023-05-07T08:07:23;14.30;;;12.30;;
43998;SDS011;51319;52.162;5.302;2023-05-07T08:09:51;13.85;;;11.85;;
43998;SDS011;51319;52.162;5.302;2023-05-07T08:12:20;18.88;;;13.27;;
43998;SDS011;51319;52.162;5.302;2023-05-07T08:15:00;16.80;;;13.23;;
43998;SDS011;51319;52.162;5.302;2023-05-07T08:17:27;15.30;;;13.18;;
43998;SDS011;51319;52.162;5.302;2023-05-07T08:19:55;23.77;;;13.82;;
43998;SDS011;51319;52.162;5.302;2023-05-07T08:22:22;19.35;;;15.30;;
43998;SDS011;51319;52.162;5.302;2023-05-07T08:24:52;18.27;;;14.98;;
43998;SDS011;51319;52.162;5.302;2023-05-07T08:27:25;20.50;;;14.07;;
43998;SDS011;51319;52.162;5.302;2023-05-07T08:29:55;16.40;;;13.82;;
43998;SDS011;51319;52.162;5.302;2023-05-07T08:32:23;18.52;;;14.18;;
43998;SDS011;51319;52.162;5.302;2023-05-07T08:34:50;16.60;;;13.93;;
43998;SDS011;51319;52.162;5.302;2023-05-07T08:37:17;15.85;;;13.98;;
43998;SDS011;51319;52.162;5.302;2023-05-07T08:39:44;17.85;;;15.10;;
43998;SDS011;51319;52.162;5.302;2023-05-07T08:44:47;15.70;;;13.95;;
43998;SDS011;51319;52.162;5.302;2023-05-07T08:47:22;21.77;;;15.15;;
43998;SDS011;51319;52.162;5.302;2023-05-07T08:49:55;18.52;;;15.82;;
43998;SDS011;51319;52.162;5.302;2023-05-07T08:52:24;17.85;;;15.35;;
43998;SDS011;51319;52.162;5.302;2023-05-07T08:54:56;17.05;;;14.80;;
43998;SDS011;51319;52.162;5.302;2023-05-07T08:57:25;15.55;;;13.90;;
43998;SDS011;51319;52.162;5.302;2023-05-07T08:59:52;18.20;;;15.68;;
43998;SDS011;51319;52.162;5.302;2023-05-07T09:02:19;16.00;;;14.18;;
43998;SDS011;51319;52.162;5.302;2023-05-07T09:04:50;16.85;;;15.05;;
43998;SDS011;51319;52.162;5.302;2023-05-07T09:07:17;18.70;;;14.65;;
43998;SDS011;51319;52.162;5.302;2023-05-07T09:09:46;19.83;;;15.43;;
43998;SDS011;51319;52.162;5.302;2023-05-07T09:12:13;19.65;;;14.07;;
43998;SDS011;51319;52.162;5.302;2023-05-07T09:14:41;21.27;;;14.55;;
43998;SDS011;51319;52.162;5.302;2023-05-07T09:17:08;17.52;;;14.70;;
43998;SDS011;51319;52.162;5.302;2023-05-07T09:19:37;21.45;;;16.45;;
43998;SDS011;51319;52.162;5.302;2023-05-07T09:22:05;17.52;;;14.85;;
43998;SDS011;51319;52.162;5.302;2023-05-07T09:24:35;16.15;;;14.35;;
43998;SDS011;51319;52.162;5.302;2023-05-07T09:27:07;16.20;;;14.25;;
43998;SDS011;51319;52.162;5.302;2023-05-07T09:29:43;16.63;;;13.35;;
43998;SDS011;51319;52.162;5.302;2023-05-07T09:32:13;24.63;;;19.08;;
43998;SDS011;51319;52.162;5.302;2023-05-07T09:34:42;17.80;;;14.02;;
43998;SDS011;51319;52.162;5.302;2023-05-07T09:37:12;15.55;;;14.05;;
43998;SDS011;51319;52.162;5.302;2023-05-07T09:39:46;16.70;;;14.05;;
43998;SDS011;51319;52.162;5.302;2023-05-07T09:42:15;17.05;;;13.90;;
43998;SDS011;51319;52.162;5.302;2023-05-07T09:44:44;14.48;;;13.00;;
43998;SDS011;51319;52.162;5.302;2023-05-07T09:47:11;14.35;;;12.95;;
43998;SDS011;51319;52.162;5.302;2023-05-07T09:49:49;16.85;;;14.07;;
43998;SDS011;51319;52.162;5.302;2023-05-07T09:52:18;16.02;;;13.93;;
43998;SDS011;51319;52.162;5.302;2023-05-07T09:54:46;15.90;;;13.20;;
43998;SDS011;51319;52.162;5.302;2023-05-07T09:57:16;15.82;;;12.73;;
43998;SDS011;51319;52.162;5.302;2023-05-07T09:59:46;19.50;;;13.95;;
43998;SDS011;51319;52.162;5.302;2023-05-07T10:02:15;13.80;;;11.15;;
43998;SDS011;51319;52.162;5.302;2023-05-07T10:04:46;12.07;;;8.27;;
43998;SDS011;51319;52.162;5.302;2023-05-07T10:07:15;26.25;;;15.73;;
43998;SDS011;51319;52.162;5.302;2023-05-07T10:09:46;10.38;;;9.27;;
43998;SDS011;51319;52.162;5.302;2023-05-07T10:12:16;12.73;;;9.13;;
43998;SDS011;51319;52.162;5.302;2023-05-07T10:14:51;9.00;;;8.13;;
43998;SDS011;51319;52.162;5.302;2023-05-07T10:17:37;9.50;;;8.18;;
43998;SDS011;51319;52.162;5.302;2023-05-07T10:20:09;13.68;;;8.80;;
43998;SDS011;51319;52.162;5.302;2023-05-07T10:22:46;10.32;;;7.45;;
43998;SDS011;51319;52.162;5.302;2023-05-07T10:25:28;8.60;;;6.93;;
43998;SDS011;51319;52.162;5.302;2023-05-07T10:28:06;8.23;;;7.40;;
43998;SDS011;51319;52.162;5.302;2023-05-07T10:31:11;8.27;;;7.47;;
43998;SDS011;51319;52.162;5.302;2023-05-07T10:34:20;10.05;;;8.00;;
43998;SDS011;51319;52.162;5.302;2023-05-07T10:36:56;9.68;;;7.68;;
43998;SDS011;51319;52.162;5.302;2023-05-07T10:39:29;12.15;;;8.05;;
43998;SDS011;51319;52.162;5.302;2023-05-07T10:41:56;10.95;;;7.90;;
43998;SDS011;51319;52.162;5.302;2023-05-07T10:44:33;13.52;;;7.75;;
43998;SDS011;51319;52.162;5.302;2023-05-07T10:47:08;9.30;;;7.03;;
43998;SDS011;51319;52.162;5.302;2023-05-07T10:55:48;9.18;;;6.55;;
43998;SDS011;51319;52.162;5.302;2023-05-07T10:58:35;8.63;;;6.63;;
43998;SDS011;51319;52.162;5.302;2023-05-07T11:01:06;7.22;;;6.45;;
43998;SDS011;51319;52.162;5.302;2023-05-07T11:03:32;12.00;;;7.25;;
43998;SDS011;51319;52.162;5.302;2023-05-07T11:06:12;10.65;;;6.82;;
43998;SDS011;51319;52.162;5.302;2023-05-07T11:08:52;9.30;;;6.43;;
43998;SDS011;51319;52.162;5.302;2023-05-07T11:14:14;12.45;;;11.15;;
43998;SDS011;51319;52.162;5.302;2023-05-07T11:17:09;9.32;;;7.00;;
43998;SDS011;51319;52.162;5.302;2023-05-07T11:19:51;11.75;;;6.95;;
43998;SDS011;51319;52.162;5.302;2023-05-07T11:24:58;7.93;;;7.00;;
43998;SDS011;51319;52.162;5.302;2023-05-07T11:27:26;9.98;;;7.15;;
43998;SDS011;51319;52.162;5.302;2023-05-07T11:29:54;9.82;;;6.55;;
43998;SDS011;51319;52.162;5.302;2023-05-07T11:32:29;10.57;;;7.25;;
43998;SDS011;51319;52.162;5.302;2023-05-07T11:35:00;11.05;;;6.97;;
43998;SDS011;51319;52.162;5.302;2023-05-07T11:37:31;9.50;;;6.80;;
43998;SDS011;51319;52.162;5.302;2023-05-07T11:40:08;10.93;;;8.95;;
43998;SDS011;51319;52.162;5.302;2023-05-07T11:42:40;10.05;;;7.28;;
43998;SDS011;51319;52.162;5.302;2023-05-07T11:45:09;9.45;;;7.13;;
43998;SDS011;51319;52.162;5.302;2023-05-07T11:47:38;9.93;;;6.82;;
43998;SDS011;51319;52.162;5.302;2023-05-07T11:50:11;7.82;;;6.40;;
43998;SDS011;51319;52.162;5.302;2023-05-07T11:52:49;7.05;;;6.35;;
43998;SDS011;51319;52.162;5.302;2023-05-07T11:55:19;11.95;;;6.85;;
43998;SDS011;51319;52.162;5.302;2023-05-07T11:57:48;11.48;;;6.15;;
43998;SDS011;51319;52.162;5.302;2023-05-07T12:00:17;9.82;;;7.07;;
43998;SDS011;51319;52.162;5.302;2023-05-07T12:02:45;7.55;;;6.53;;
43998;SDS011;51319;52.162;5.302;2023-05-07T12:05:13;8.25;;;7.15;;
43998;SDS011;51319;52.162;5.302;2023-05-07T12:07:41;9.63;;;6.50;;
43998;SDS011;51319;52.162;5.302;2023-05-07T12:10:09;9.52;;;6.55;;
43998;SDS011;51319;52.162;5.302;2023-05-07T12:12:39;9.82;;;6.78;;
43998;SDS011;51319;52.162;5.302;2023-05-07T12:15:09;17.15;;;7.53;;
43998;SDS011;51319;52.162;5.302;2023-05-07T12:17:40;25.02;;;19.05;;
43998;SDS011;51319;52.162;5.302;2023-05-07T12:20:29;8.43;;;7.57;;
43998;SDS011;51319;52.162;5.302;2023-05-07T12:23:02;10.35;;;7.35;;
43998;SDS011;51319;52.162;5.302;2023-05-07T12:25:38;9.93;;;8.60;;
43998;SDS011;51319;52.162;5.302;2023-05-07T12:28:15;11.32;;;8.10;;
43998;SDS011;51319;52.162;5.302;2023-05-07T12:30:47;9.80;;;7.95;;
43998;SDS011;51319;52.162;5.302;2023-05-07T12:33:18;10.10;;;7.90;;
43998;SDS011;51319;52.162;5.302;2023-05-07T12:35:49;9.73;;;8.13;;
43998;SDS011;51319;52.162;5.302;2023-05-07T12:38:17;9.45;;;8.20;;
43998;SDS011;51319;52.162;5.302;2023-05-07T12:40:47;9.05;;;8.23;;
43998;SDS011;51319;52.162;5.302;2023-05-07T12:43:21;11.23;;;8.23;;
43998;SDS011;51319;52.162;5.302;2023-05-07T12:45:57;10.63;;;8.13;;
43998;SDS011;51319;52.162;5.302;2023-05-07T12:50:54;19.13;;;15.13;;
43998;SDS011;51319;52.162;5.302;2023-05-07T12:53:22;13.35;;;8.25;;
43998;SDS011;51319;52.162;5.302;2023-05-07T12:55:52;14.68;;;8.02;;
43998;SDS011;51319;52.162;5.302;2023-05-07T12:58:30;9.93;;;7.40;;
43998;SDS011;51319;52.162;5.302;2023-05-07T13:01:00;14.10;;;10.13;;
43998;SDS011;51319;52.162;5.302;2023-05-07T13:03:33;11.18;;;8.40;;
43998;SDS011;51319;52.162;5.302;2023-05-07T13:06:09;10.38;;;7.40;;
43998;SDS011;51319;52.162;5.302;2023-05-07T13:08:37;9.75;;;6.95;;
43998;SDS011;51319;52.162;5.302;2023-05-07T13:11:08;13.30;;;8.00;;
43998;SDS011;51319;52.162;5.302;2023-05-07T13:13:40;11.38;;;9.27;;
43998;SDS011;51319;52.162;5.302;2023-05-07T13:16:08;9.75;;;8.75;;
43998;SDS011;51319;52.162;5.302;2023-05-07T13:18:38;13.02;;;8.10;;
43998;SDS011;51319;52.162;5.302;2023-05-07T13:21:07;15.75;;;8.68;;
43998;SDS011;51319;52.162;5.302;2023-05-07T13:23:36;11.85;;;7.47;;
43998;SDS011;51319;52.162;5.302;2023-05-07T13:26:06;10.32;;;7.43;;
43998;SDS011;51319;52.162;5.302;2023-05-07T13:28:52;14.93;;;7.50;;
43998;SDS011;51319;52.162;5.302;2023-05-07T13:31:26;11.15;;;6.90;;
43998;SDS011;51319;52.162;5.302;2023-05-07T13:33:53;11.38;;;8.05;;
43998;SDS011;51319;52.162;5.302;2023-05-07T13:36:25;14.88;;;8.60;;
43998;SDS011;51319;52.162;5.302;2023-05-07T13:38:53;11.65;;;8.80;;
43998;SDS011;51319;52.162;5.302;2023-05-07T13:41:21;11.55;;;7.93;;
43998;SDS011;51319;52.162;5.302;2023-05-07T13:43:49;15.23;;;7.45;;
43998;SDS011;51319;52.162;5.302;2023-05-07T13:46:17;14.18;;;10.30;;
43998;SDS011;51319;52.162;5.302;2023-05-07T13:48:46;8.80;;;6.72;;
43998;SDS011;51319;52.162;5.302;2023-05-07T13:51:14;10.35;;;7.28;;
43998;SDS011;51319;52.162;5.302;2023-05-07T13:53:42;6.93;;;5.57;;
43998;SDS011;51319;52.162;5.302;2023-05-07T13:56:09;11.77;;;7.22;;
43998;SDS011;51319;52.162;5.302;2023-05-07T13:58:37;14.73;;;6.72;;
43998;SDS011;51319;52.162;5.302;2023-05-07T14:01:24;14.13;;;7.03;;
43998;SDS011;51319;52.162;5.302;2023-05-07T14:03:56;10.65;;;6.10;;
43998;SDS011;51319;52.162;5.302;2023-05-07T14:06:42;10.60;;;4.60;;
43998;SDS011;51319;52.162;5.302;2023-05-07T14:09:09;32.33;;;17.48;;
43998;SDS011;51319;52.162;5.302;2023-05-07T14:11:38;9.10;;;4.47;;
43998;SDS011;51319;52.162;5.302;2023-05-07T14:14:06;7.10;;;4.63;;
43998;SDS011;51319;52.162;5.302;2023-05-07T14:16:33;9.70;;;4.22;;
43998;SDS011;51319;52.162;5.302;2023-05-07T14:19:00;11.20;;;5.30;;
43998;SDS011;51319;52.162;5.302;2023-05-07T14:21:30;8.68;;;5.90;;
43998;SDS011;51319;52.162;5.302;2023-05-07T14:23:57;9.95;;;6.43;;
43998;SDS011;51319;52.162;5.302;2023-05-07T14:26:24;9.07;;;7.00;;
43998;SDS011;51319;52.162;5.302;2023-05-07T14:28:53;13.27;;;7.85;;
43998;SDS011;51319;52.162;5.302;2023-05-07T14:31:21;10.10;;;7.32;;
43998;SDS011;51319;52.162;5.302;2023-05-07T14:33:48;13.93;;;7.80;;
43998;SDS011;51319;52.162;5.302;2023-05-07T14:36:17;12.85;;;7.63;;
43998;SDS011;51319;52.162;5.302;2023-05-07T14:41:18;10.20;;;7.53;;
43998;SDS011;51319;52.162;5.302;2023-05-07T14:43:48;19.10;;;8.13;;
43998;SDS011;51319;52.162;5.302;2023-05-07T14:48:49;12.93;;;8.80;;
43998;SDS011;51319;52.162;5.302;2023-05-07T14:51:16;12.63;;;9.40;;
43998;SDS011;51319;52.162;5.302;2023-05-07T14:53:43;13.15;;;9.05;;
43998;SDS011;51319;52.162;5.302;2023-05-07T14:56:10;10.43;;;8.25;;
43998;SDS011;51319;52.162;5.302;2023-05-07T14:58:37;14.18;;;9.25;;
43998;SDS011;51319;52.162;5.302;2023-05-07T15:01:04;13.70;;;9.02;;
43998;SDS011;51319;52.162;5.302;2023-05-07T15:03:32;14.27;;;9.50;;
43998;SDS011;51319;52.162;5.302;2023-05-07T15:06:01;13.63;;;9.38;;
43998;SDS011;51319;52.162;5.302;2023-05-07T15:08:28;18.92;;;9.48;;
43998;SDS011;51319;52.162;5.302;2023-05-07T15:10:55;15.77;;;9.35;;